sensor_id;sensor_type;location;lat;lon;timestamp;P1;durP1;ratioP1;P2;durP2;ratioP2
13439;SDS011;6792;57.698;11.946;2023-07-13T00:01:24;5.65;;;1.60;;
13439;SDS011;6792;57.698;11.946;2023-07-13T00:03:53;6.40;;;1.47;;
13439;SDS011;6792;57.698;11.946;2023-07-13T00:06:23;6.72;;;1.42;;
13439;SDS011;6792;57.698;11.946;2023-07-13T00:08:54;4.75;;;1.42;;
13439;SDS011;6792;57.698;11.946;2023-07-13T00:11:23;4.03;;;1.40;;
13439;SDS011;6792;57.698;11.946;2023-07-13T00:13:53;4.28;;;1.30;;
13439;SDS011;6792;57.698;11.946;2023-07-13T00:16:22;8.05;;;1.30;;
13439;SDS011;6792;57.698;11.946;2023-07-13T00:18:51;5.80;;;1.52;;
13439;SDS011;6792;57.698;11.946;2023-07-13T00:21:20;3.92;;;1.47;;
13439;SDS011;6792;57.698;11.946;2023-07-13T00:23:49;4.92;;;1.57;;
13439;SDS011;6792;57.698;11.946;2023-07-13T00:26:19;2.62;;;1.25;;
13439;SDS011;6792;57.698;11.946;2023-07-13T00:28:48;2.33;;;1.30;;
13439;SDS011;6792;57.698;11.946;2023-07-13T00:31:18;2.75;;;1.20;;
13439;SDS011;6792;57.698;11.946;2023-07-13T00:33:47;5.17;;;1.62;;
13439;SDS011;6792;57.698;11.946;2023-07-13T00:36:16;4.60;;;1.40;;
13439;SDS011;6792;57.698;11.946;2023-07-13T00:38:47;6.10;;;1.75;;
13439;SDS011;6792;57.698;11.946;2023-07-13T00:41:16;5.35;;;1.50;;
13439;SDS011;6792;57.698;11.946;2023-07-13T00:43:46;3.60;;;1.30;;
13439;SDS011;6792;57.698;11.946;2023-07-13T00:46:21;6.33;;;1.25;;
13439;SDS011;6792;57.698;11.946;2023-07-13T00:48:54;9.18;;;1.90;;
13439;SDS011;6792;57.698;11.946;2023-07-13T00:51:28;5.53;;;1.70;;
13439;SDS011;6792;57.698;11.946;2023-07-13T00:54:02;6.05;;;1.57;;
13439;SDS011;6792;57.698;11.946;2023-07-13T00:56:33;7.28;;;1.80;;
13439;SDS011;6792;57.698;11.946;2023-07-13T00:59:03;7.22;;;1.42;;
13439;SDS011;6792;57.698;11.946;2023-07-13T01:01:34;3.52;;;1.60;;
13439;SDS011;6792;57.698;11.946;2023-07-13T01:04:03;5.78;;;1.40;;
13439;SDS011;6792;57.698;11.946;2023-07-13T01:06:34;5.42;;;1.40;;
13439;SDS011;6792;57.698;11.946;2023-07-13T01:09:05;2.75;;;1.42;;
13439;SDS011;6792;57.698;11.946;2023-07-13T01:11:36;5.17;;;1.55;;
13439;SDS011;6792;57.698;11.946;2023-07-13T01:14:05;2.98;;;1.70;;
13439;SDS011;6792;57.698;11.946;2023-07-13T01:16:35;5.47;;;1.57;;
13439;SDS011;6792;57.698;11.946;2023-07-13T01:19:11;2.92;;;1.60;;
13439;SDS011;6792;57.698;11.946;2023-07-13T01:21:41;4.37;;;1.50;;
13439;SDS011;6792;57.698;11.946;2023-07-13T01:24:11;3.98;;;1.40;;
13439;SDS011;6792;57.698;11.946;2023-07-13T01:26:40;10.18;;;1.80;;
13439;SDS011;6792;57.698;11.946;2023-07-13T01:29:09;5.17;;;1.67;;
13439;SDS011;6792;57.698;11.946;2023-07-13T01:31:38;11.22;;;2.42;;
13439;SDS011;6792;57.698;11.946;2023-07-13T01:34:07;3.52;;;1.50;;
13439;SDS011;6792;57.698;11.946;2023-07-13T01:36:37;3.80;;;1.75;;
13439;SDS011;6792;57.698;11.946;2023-07-13T01:39:06;5.95;;;1.87;;
13439;SDS011;6792;57.698;11.946;2023-07-13T01:41:35;5.95;;;1.90;;
13439;SDS011;6792;57.698;11.946;2023-07-13T01:44:05;7.25;;;1.92;;
13439;SDS011;6792;57.698;11.946;2023-07-13T01:46:34;6.25;;;1.45;;
13439;SDS011;6792;57.698;11.946;2023-07-13T01:49:03;4.55;;;1.95;;
13439;SDS011;6792;57.698;11.946;2023-07-13T01:51:32;8.35;;;1.80;;
13439;SDS011;6792;57.698;11.946;2023-07-13T01:54:01;7.60;;;1.87;;
13439;SDS011;6792;57.698;11.946;2023-07-13T01:56:31;7.10;;;1.90;;
13439;SDS011;6792;57.698;11.946;2023-07-13T01:59:00;7.78;;;1.60;;
13439;SDS011;6792;57.698;11.946;2023-07-13T02:01:29;5.65;;;1.90;;
13439;SDS011;6792;57.698;11.946;2023-07-13T02:04:00;5.08;;;2.02;;
13439;SDS011;6792;57.698;11.946;2023-07-13T02:06:29;8.03;;;2.30;;
13439;SDS011;6792;57.698;11.946;2023-07-13T02:08:58;3.77;;;1.70;;
13439;SDS011;6792;57.698;11.946;2023-07-13T02:11:28;4.03;;;1.45;;
13439;SDS011;6792;57.698;11.946;2023-07-13T02:13:59;5.97;;;1.75;;
13439;SDS011;6792;57.698;11.946;2023-07-13T02:16:31;4.58;;;1.82;;
13439;SDS011;6792;57.698;11.946;2023-07-13T02:19:00;6.58;;;1.35;;
13439;SDS011;6792;57.698;11.946;2023-07-13T02:21:29;7.50;;;2.22;;
13439;SDS011;6792;57.698;11.946;2023-07-13T02:23:58;8.23;;;2.10;;
13439;SDS011;6792;57.698;11.946;2023-07-13T02:26:28;10.23;;;2.37;;
13439;SDS011;6792;57.698;11.946;2023-07-13T02:28:57;8.43;;;2.10;;
13439;SDS011;6792;57.698;11.946;2023-07-13T02:31:26;3.27;;;1.67;;
13439;SDS011;6792;57.698;11.946;2023-07-13T02:33:55;7.85;;;2.00;;
13439;SDS011;6792;57.698;11.946;2023-07-13T02:36:24;5.03;;;1.80;;
13439;SDS011;6792;57.698;11.946;2023-07-13T02:38:53;7.08;;;2.20;;
13439;SDS011;6792;57.698;11.946;2023-07-13T02:41:23;9.58;;;2.30;;
13439;SDS011;6792;57.698;11.946;2023-07-13T02:43:52;8.00;;;2.27;;
13439;SDS011;6792;57.698;11.946;2023-07-13T02:46:23;8.80;;;2.15;;
13439;SDS011;6792;57.698;11.946;2023-07-13T02:48:52;5.33;;;1.92;;
13439;SDS011;6792;57.698;11.946;2023-07-13T02:51:22;10.43;;;2.22;;
13439;SDS011;6792;57.698;11.946;2023-07-13T02:53:51;7.60;;;1.80;;
13439;SDS011;6792;57.698;11.946;2023-07-13T02:56:21;3.62;;;1.98;;
13439;SDS011;6792;57.698;11.946;2023-07-13T02:58:53;6.20;;;2.02;;
13439;SDS011;6792;57.698;11.946;2023-07-13T03:01:22;5.72;;;2.02;;
13439;SDS011;6792;57.698;11.946;2023-07-13T03:03:52;8.98;;;2.27;;
13439;SDS011;6792;57.698;11.946;2023-07-13T03:06:22;8.78;;;2.50;;
13439;SDS011;6792;57.698;11.946;2023-07-13T03:08:51;8.10;;;1.90;;
13439;SDS011;6792;57.698;11.946;2023-07-13T03:11:20;7.78;;;1.80;;
13439;SDS011;6792;57.698;11.946;2023-07-13T03:13:50;4.62;;;2.05;;
13439;SDS011;6792;57.698;11.946;2023-07-13T03:16:21;3.72;;;2.08;;
13439;SDS011;6792;57.698;11.946;2023-07-13T03:18:51;9.30;;;1.95;;
13439;SDS011;6792;57.698;11.946;2023-07-13T03:21:21;10.53;;;2.60;;
13439;SDS011;6792;57.698;11.946;2023-07-13T03:23:52;6.08;;;1.80;;
13439;SDS011;6792;57.698;11.946;2023-07-13T03:26:22;7.30;;;2.25;;
13439;SDS011;6792;57.698;11.946;2023-07-13T03:28:51;8.50;;;2.25;;
13439;SDS011;6792;57.698;11.946;2023-07-13T03:31:21;7.58;;;2.10;;
13439;SDS011;6792;57.698;11.946;2023-07-13T03:33:52;9.90;;;2.20;;
13439;SDS011;6792;57.698;11.946;2023-07-13T03:36:22;8.85;;;2.37;;
13439;SDS011;6792;57.698;11.946;2023-07-13T03:38:53;6.75;;;2.37;;
13439;SDS011;6792;57.698;11.946;2023-07-13T03:41:24;6.37;;;2.05;;
13439;SDS011;6792;57.698;11.946;2023-07-13T03:43:53;6.05;;;2.30;;
13439;SDS011;6792;57.698;11.946;2023-07-13T03:46:23;6.70;;;1.95;;
13439;SDS011;6792;57.698;11.946;2023-07-13T03:48:52;11.28;;;2.58;;
13439;SDS011;6792;57.698;11.946;2023-07-13T03:51:21;6.20;;;2.08;;
13439;SDS011;6792;57.698;11.946;2023-07-13T03:53:51;6.20;;;1.80;;
13439;SDS011;6792;57.698;11.946;2023-07-13T03:56:20;4.60;;;2.15;;
13439;SDS011;6792;57.698;11.946;2023-07-13T03:58:50;5.50;;;1.70;;
13439;SDS011;6792;57.698;11.946;2023-07-13T04:01:21;5.92;;;2.12;;
13439;SDS011;6792;57.698;11.946;2023-07-13T04:03:52;10.00;;;2.35;;
13439;SDS011;6792;57.698;11.946;2023-07-13T04:06:22;6.80;;;1.92;;
13439;SDS011;6792;57.698;11.946;2023-07-13T04:08:53;8.35;;;2.27;;
13439;SDS011;6792;57.698;11.946;2023-07-13T04:11:24;7.62;;;2.00;;
13439;SDS011;6792;57.698;11.946;2023-07-13T04:13:55;7.25;;;2.15;;
13439;SDS011;6792;57.698;11.946;2023-07-13T04:16:25;3.98;;;1.90;;
13439;SDS011;6792;57.698;11.946;2023-07-13T04:18:54;5.95;;;1.70;;
13439;SDS011;6792;57.698;11.946;2023-07-13T04:21:26;11.65;;;2.00;;
13439;SDS011;6792;57.698;11.946;2023-07-13T04:23:57;7.17;;;1.65;;
13439;SDS011;6792;57.698;11.946;2023-07-13T04:26:27;5.33;;;1.87;;
13439;SDS011;6792;57.698;11.946;2023-07-13T04:28:56;6.83;;;2.05;;
13439;SDS011;6792;57.698;11.946;2023-07-13T04:31:26;9.25;;;2.05;;
13439;SDS011;6792;57.698;11.946;2023-07-13T04:33:55;6.53;;;2.10;;
13439;SDS011;6792;57.698;11.946;2023-07-13T04:36:24;8.15;;;1.90;;
13439;SDS011;6792;57.698;11.946;2023-07-13T04:38:54;8.10;;;1.90;;
13439;SDS011;6792;57.698;11.946;2023-07-13T04:41:23;5.53;;;2.22;;
13439;SDS011;6792;57.698;11.946;2023-07-13T04:43:53;6.60;;;2.10;;
13439;SDS011;6792;57.698;11.946;2023-07-13T04:46:22;10.05;;;2.65;;
13439;SDS011;6792;57.698;11.946;2023-07-13T04:48:51;8.23;;;1.75;;
13439;SDS011;6792;57.698;11.946;2023-07-13T04:51:21;5.00;;;1.90;;
13439;SDS011;6792;57.698;11.946;2023-07-13T04:53:53;8.33;;;1.80;;
13439;SDS011;6792;57.698;11.946;2023-07-13T04:56:22;8.65;;;2.20;;
13439;SDS011;6792;57.698;11.946;2023-07-13T04:58:51;6.92;;;2.00;;
13439;SDS011;6792;57.698;11.946;2023-07-13T05:01:20;5.70;;;1.77;;
13439;SDS011;6792;57.698;11.946;2023-07-13T05:03:49;4.17;;;2.02;;
13439;SDS011;6792;57.698;11.946;2023-07-13T05:06:19;5.42;;;2.00;;
13439;SDS011;6792;57.698;11.946;2023-07-13T05:08:48;6.65;;;1.80;;
13439;SDS011;6792;57.698;11.946;2023-07-13T05:11:18;6.72;;;1.70;;
13439;SDS011;6792;57.698;11.946;2023-07-13T05:13:52;5.83;;;1.95;;
13439;SDS011;6792;57.698;11.946;2023-07-13T05:16:22;7.80;;;2.10;;
13439;SDS011;6792;57.698;11.946;2023-07-13T05:18:51;4.53;;;2.00;;
13439;SDS011;6792;57.698;11.946;2023-07-13T05:21:20;8.65;;;1.80;;
13439;SDS011;6792;57.698;11.946;2023-07-13T05:23:49;2.92;;;1.60;;
13439;SDS011;6792;57.698;11.946;2023-07-13T05:26:19;2.85;;;1.47;;
13439;SDS011;6792;57.698;11.946;2023-07-13T05:28:48;7.12;;;1.45;;
13439;SDS011;6792;57.698;11.946;2023-07-13T05:31:17;3.65;;;1.55;;
13439;SDS011;6792;57.698;11.946;2023-07-13T05:33:51;9.13;;;1.85;;
13439;SDS011;6792;57.698;11.946;2023-07-13T05:36:20;5.03;;;1.72;;
13439;SDS011;6792;57.698;11.946;2023-07-13T05:38:50;6.35;;;1.67;;
13439;SDS011;6792;57.698;11.946;2023-07-13T05:41:19;11.15;;;1.80;;
13439;SDS011;6792;57.698;11.946;2023-07-13T05:43:48;5.80;;;1.85;;
13439;SDS011;6792;57.698;11.946;2023-07-13T05:46:17;5.40;;;1.90;;
13439;SDS011;6792;57.698;11.946;2023-07-13T05:48:50;6.50;;;1.60;;
13439;SDS011;6792;57.698;11.946;2023-07-13T05:51:20;7.10;;;1.65;;
13439;SDS011;6792;57.698;11.946;2023-07-13T05:53:51;4.90;;;1.60;;
13439;SDS011;6792;57.698;11.946;2023-07-13T05:56:21;6.15;;;1.67;;
13439;SDS011;6792;57.698;11.946;2023-07-13T05:58:51;5.72;;;1.80;;
13439;SDS011;6792;57.698;11.946;2023-07-13T06:01:21;6.35;;;2.08;;
13439;SDS011;6792;57.698;11.946;2023-07-13T06:03:53;6.17;;;2.12;;
13439;SDS011;6792;57.698;11.946;2023-07-13T06:06:22;7.85;;;1.65;;
13439;SDS011;6792;57.698;11.946;2023-07-13T06:08:51;10.05;;;1.80;;
13439;SDS011;6792;57.698;11.946;2023-07-13T06:11:21;7.65;;;2.25;;
13439;SDS011;6792;57.698;11.946;2023-07-13T06:13:51;10.50;;;1.92;;
13439;SDS011;6792;57.698;11.946;2023-07-13T06:16:21;9.13;;;2.20;;
13439;SDS011;6792;57.698;11.946;2023-07-13T06:18:50;4.30;;;1.72;;
13439;SDS011;6792;57.698;11.946;2023-07-13T06:21:20;7.90;;;1.87;;
13439;SDS011;6792;57.698;11.946;2023-07-13T06:23:51;6.78;;;1.82;;
13439;SDS011;6792;57.698;11.946;2023-07-13T06:26:20;5.08;;;2.10;;
13439;SDS011;6792;57.698;11.946;2023-07-13T06:28:50;10.60;;;1.92;;
13439;SDS011;6792;57.698;11.946;2023-07-13T06:31:20;3.83;;;1.60;;
13439;SDS011;6792;57.698;11.946;2023-07-13T06:33:49;5.42;;;2.08;;
13439;SDS011;6792;57.698;11.946;2023-07-13T06:36:18;7.80;;;1.92;;
13439;SDS011;6792;57.698;11.946;2023-07-13T06:38:47;7.00;;;1.85;;
13439;SDS011;6792;57.698;11.946;2023-07-13T06:41:17;5.25;;;1.90;;
13439;SDS011;6792;57.698;11.946;2023-07-13T06:43:46;10.28;;;2.17;;
13439;SDS011;6792;57.698;11.946;2023-07-13T06:46:15;4.55;;;1.95;;
13439;SDS011;6792;57.698;11.946;2023-07-13T06:48:45;5.28;;;1.75;;
13439;SDS011;6792;57.698;11.946;2023-07-13T06:51:14;8.50;;;1.75;;
13439;SDS011;6792;57.698;11.946;2023-07-13T06:53:43;5.80;;;1.77;;
13439;SDS011;6792;57.698;11.946;2023-07-13T06:56:12;8.63;;;1.98;;
13439;SDS011;6792;57.698;11.946;2023-07-13T06:58:44;6.37;;;1.80;;
13439;SDS011;6792;57.698;11.946;2023-07-13T07:01:14;2.65;;;1.82;;
13439;SDS011;6792;57.698;11.946;2023-07-13T07:03:43;3.27;;;1.30;;
13439;SDS011;6792;57.698;11.946;2023-07-13T07:06:14;6.05;;;1.85;;
13439;SDS011;6792;57.698;11.946;2023-07-13T07:08:45;5.10;;;1.98;;
13439;SDS011;6792;57.698;11.946;2023-07-13T07:11:16;5.00;;;1.70;;
13439;SDS011;6792;57.698;11.946;2023-07-13T07:13:46;7.80;;;1.50;;
13439;SDS011;6792;57.698;11.946;2023-07-13T07:16:15;6.00;;;1.47;;
13439;SDS011;6792;57.698;11.946;2023-07-13T07:18:45;5.72;;;1.70;;
13439;SDS011;6792;57.698;11.946;2023-07-13T07:21:13;4.30;;;1.57;;
13439;SDS011;6792;57.698;11.946;2023-07-13T07:23:42;6.45;;;1.80;;
13439;SDS011;6792;57.698;11.946;2023-07-13T07:26:12;9.85;;;1.70;;
13439;SDS011;6792;57.698;11.946;2023-07-13T07:32:04;2.37;;;1.32;;
13439;SDS011;6792;57.698;11.946;2023-07-13T07:34:34;4.75;;;1.65;;
13439;SDS011;6792;57.698;11.946;2023-07-13T07:37:03;4.95;;;1.35;;
13439;SDS011;6792;57.698;11.946;2023-07-13T07:39:33;2.47;;;1.50;;
13439;SDS011;6792;57.698;11.946;2023-07-13T07:45:32;4.40;;;1.30;;
13439;SDS011;6792;57.698;11.946;2023-07-13T07:48:04;4.00;;;1.37;;
13439;SDS011;6792;57.698;11.946;2023-07-13T07:53:34;4.55;;;1.40;;
13439;SDS011;6792;57.698;11.946;2023-07-13T07:56:03;3.17;;;1.30;;
13439;SDS011;6792;57.698;11.946;2023-07-13T07:58:33;3.27;;;1.00;;
13439;SDS011;6792;57.698;11.946;2023-07-13T08:01:03;3.77;;;1.30;;
13439;SDS011;6792;57.698;11.946;2023-07-13T08:03:32;1.30;;;0.93;;
13439;SDS011;6792;57.698;11.946;2023-07-13T08:06:02;1.77;;;1.00;;
13439;SDS011;6792;57.698;11.946;2023-07-13T08:08:31;3.42;;;1.00;;
13439;SDS011;6792;57.698;11.946;2023-07-13T08:11:02;2.87;;;1.27;;
13439;SDS011;6792;57.698;11.946;2023-07-13T08:13:33;2.42;;;1.10;;
13439;SDS011;6792;57.698;11.946;2023-07-13T08:16:21;1.90;;;1.00;;
13439;SDS011;6792;57.698;11.946;2023-07-13T08:22:02;5.50;;;1.40;;
13439;SDS011;6792;57.698;11.946;2023-07-13T08:37:03;3.75;;;1.32;;
13439;SDS011;6792;57.698;11.946;2023-07-13T08:39:54;3.62;;;1.00;;
13439;SDS011;6792;57.698;11.946;2023-07-13T08:42:27;3.75;;;1.50;;
13439;SDS011;6792;57.698;11.946;2023-07-13T08:45:08;3.37;;;1.10;;
13439;SDS011;6792;57.698;11.946;2023-07-13T08:47:46;4.55;;;1.42;;
13439;SDS011;6792;57.698;11.946;2023-07-13T08:50:24;4.10;;;1.20;;
13439;SDS011;6792;57.698;11.946;2023-07-13T08:52:56;5.22;;;1.62;;
13439;SDS011;6792;57.698;11.946;2023-07-13T08:55:27;2.42;;;0.98;;
13439;SDS011;6792;57.698;11.946;2023-07-13T08:58:01;5.35;;;1.10;;
13439;SDS011;6792;57.698;11.946;2023-07-13T09:00:34;4.30;;;1.25;;
13439;SDS011;6792;57.698;11.946;2023-07-13T09:03:07;5.72;;;1.20;;
13439;SDS011;6792;57.698;11.946;2023-07-13T09:05:41;2.52;;;1.07;;
13439;SDS011;6792;57.698;11.946;2023-07-13T09:08:16;3.00;;;1.10;;
13439;SDS011;6792;57.698;11.946;2023-07-13T09:10:52;4.92;;;1.37;;
13439;SDS011;6792;57.698;11.946;2023-07-13T09:13:24;4.20;;;1.30;;
13439;SDS011;6792;57.698;11.946;2023-07-13T09:15:56;2.30;;;1.30;;
13439;SDS011;6792;57.698;11.946;2023-07-13T09:18:27;4.40;;;1.27;;
13439;SDS011;6792;57.698;11.946;2023-07-13T09:21:00;5.22;;;1.10;;
13439;SDS011;6792;57.698;11.946;2023-07-13T09:23:31;4.25;;;1.00;;
13439;SDS011;6792;57.698;11.946;2023-07-13T09:26:04;2.77;;;1.05;;
13439;SDS011;6792;57.698;11.946;2023-07-13T09:28:37;4.65;;;1.30;;
13439;SDS011;6792;57.698;11.946;2023-07-13T09:31:09;5.62;;;1.12;;
13439;SDS011;6792;57.698;11.946;2023-07-13T09:33:40;2.27;;;1.02;;
13439;SDS011;6792;57.698;11.946;2023-07-13T09:36:17;6.53;;;1.50;;
13439;SDS011;6792;57.698;11.946;2023-07-13T09:38:53;5.53;;;1.55;;
13439;SDS011;6792;57.698;11.946;2023-07-13T09:41:26;2.65;;;1.42;;
13439;SDS011;6792;57.698;11.946;2023-07-13T09:47:15;3.25;;;1.35;;
13439;SDS011;6792;57.698;11.946;2023-07-13T09:49:47;4.22;;;1.22;;
13439;SDS011;6792;57.698;11.946;2023-07-13T09:52:18;4.25;;;1.45;;
13439;SDS011;6792;57.698;11.946;2023-07-13T09:54:47;4.45;;;1.52;;
13439;SDS011;6792;57.698;11.946;2023-07-13T09:57:22;2.90;;;1.60;;
13439;SDS011;6792;57.698;11.946;2023-07-13T09:59:54;4.17;;;1.20;;
13439;SDS011;6792;57.698;11.946;2023-07-13T10:02:29;5.40;;;1.70;;
13439;SDS011;6792;57.698;11.946;2023-07-13T10:05:02;4.10;;;1.32;;
13439;SDS011;6792;57.698;11.946;2023-07-13T10:07:32;4.75;;;1.67;;
13439;SDS011;6792;57.698;11.946;2023-07-13T10:10:13;1.20;;;1.20;;
13439;SDS011;6792;57.698;11.946;2023-07-13T10:12:42;2.72;;;1.15;;
13439;SDS011;6792;57.698;11.946;2023-07-13T10:15:14;3.08;;;1.30;;
13439;SDS011;6792;57.698;11.946;2023-07-13T10:17:44;3.67;;;1.37;;
13439;SDS011;6792;57.698;11.946;2023-07-13T10:20:14;5.03;;;1.20;;
13439;SDS011;6792;57.698;11.946;2023-07-13T10:22:45;3.85;;;1.40;;
13439;SDS011;6792;57.698;11.946;2023-07-13T10:25:19;2.55;;;1.00;;
13439;SDS011;6792;57.698;11.946;2023-07-13T10:27:52;9.18;;;1.70;;
13439;SDS011;6792;57.698;11.946;2023-07-13T10:30:23;3.72;;;1.22;;
13439;SDS011;6792;57.698;11.946;2023-07-13T10:32:57;2.60;;;1.62;;
13439;SDS011;6792;57.698;11.946;2023-07-13T10:35:28;3.05;;;1.35;;
13439;SDS011;6792;57.698;11.946;2023-07-13T10:38:00;3.87;;;1.62;;
13439;SDS011;6792;57.698;11.946;2023-07-13T10:40:33;2.50;;;1.20;;
13439;SDS011;6792;57.698;11.946;2023-07-13T10:43:06;4.45;;;1.42;;
13439;SDS011;6792;57.698;11.946;2023-07-13T10:45:38;1.92;;;1.70;;
13439;SDS011;6792;57.698;11.946;2023-07-13T10:48:07;4.37;;;1.57;;
13439;SDS011;6792;57.698;11.946;2023-07-13T10:50:41;2.33;;;1.20;;
13439;SDS011;6792;57.698;11.946;2023-07-13T10:53:19;2.20;;;1.27;;
13439;SDS011;6792;57.698;11.946;2023-07-13T10:55:56;8.08;;;1.37;;
13439;SDS011;6792;57.698;11.946;2023-07-13T10:58:29;2.45;;;1.20;;
13439;SDS011;6792;57.698;11.946;2023-07-13T11:01:08;5.15;;;1.45;;
13439;SDS011;6792;57.698;11.946;2023-07-13T11:03:37;3.72;;;1.25;;
13439;SDS011;6792;57.698;11.946;2023-07-13T11:06:09;3.47;;;1.10;;
13439;SDS011;6792;57.698;11.946;2023-07-13T11:08:52;4.42;;;1.20;;
13439;SDS011;6792;57.698;11.946;2023-07-13T11:11:37;3.42;;;1.25;;
13439;SDS011;6792;57.698;11.946;2023-07-13T11:14:26;3.10;;;1.27;;
13439;SDS011;6792;57.698;11.946;2023-07-13T11:17:06;3.80;;;1.10;;
13439;SDS011;6792;57.698;11.946;2023-07-13T11:19:54;4.62;;;1.40;;
13439;SDS011;6792;57.698;11.946;2023-07-13T11:22:40;1.25;;;0.98;;
13439;SDS011;6792;57.698;11.946;2023-07-13T11:25:25;5.17;;;1.02;;
13439;SDS011;6792;57.698;11.946;2023-07-13T11:28:05;6.53;;;1.20;;
13439;SDS011;6792;57.698;11.946;2023-07-13T11:30:40;1.87;;;0.88;;
13439;SDS011;6792;57.698;11.946;2023-07-13T11:33:14;1.72;;;1.40;;
13439;SDS011;6792;57.698;11.946;2023-07-13T11:38:33;4.03;;;1.00;;
13439;SDS011;6792;57.698;11.946;2023-07-13T11:41:05;4.42;;;1.02;;
13439;SDS011;6792;57.698;11.946;2023-07-13T11:43:36;7.03;;;1.20;;
13439;SDS011;6792;57.698;11.946;2023-07-13T11:46:19;1.85;;;0.90;;
13439;SDS011;6792;57.698;11.946;2023-07-13T11:48:53;5.50;;;1.12;;
13439;SDS011;6792;57.698;11.946;2023-07-13T11:51:22;2.72;;;0.98;;
13439;SDS011;6792;57.698;11.946;2023-07-13T11:53:54;4.28;;;1.07;;
13439;SDS011;6792;57.698;11.946;2023-07-13T11:56:25;3.62;;;0.90;;
13439;SDS011;6792;57.698;11.946;2023-07-13T11:58:55;3.90;;;1.27;;
13439;SDS011;6792;57.698;11.946;2023-07-13T12:01:25;3.55;;;1.10;;
13439;SDS011;6792;57.698;11.946;2023-07-13T12:03:59;4.60;;;0.93;;
13439;SDS011;6792;57.698;11.946;2023-07-13T12:06:30;2.67;;;0.80;;
13439;SDS011;6792;57.698;11.946;2023-07-13T12:09:03;3.42;;;0.90;;
13439;SDS011;6792;57.698;11.946;2023-07-13T12:11:40;3.75;;;1.60;;
13439;SDS011;6792;57.698;11.946;2023-07-13T12:14:14;2.27;;;1.45;;
13439;SDS011;6792;57.698;11.946;2023-07-13T12:16:44;4.70;;;0.85;;
13439;SDS011;6792;57.698;11.946;2023-07-13T12:19:16;4.03;;;1.20;;
13439;SDS011;6792;57.698;11.946;2023-07-13T12:21:47;2.00;;;0.75;;
13439;SDS011;6792;57.698;11.946;2023-07-13T12:24:19;2.58;;;1.10;;
13439;SDS011;6792;57.698;11.946;2023-07-13T12:26:53;3.17;;;1.00;;
13439;SDS011;6792;57.698;11.946;2023-07-13T12:29:24;5.05;;;1.02;;
13439;SDS011;6792;57.698;11.946;2023-07-13T12:31:54;2.90;;;1.10;;
13439;SDS011;6792;57.698;11.946;2023-07-13T12:34:24;2.02;;;1.00;;
13439;SDS011;6792;57.698;11.946;2023-07-13T12:36:54;1.25;;;1.15;;
13439;SDS011;6792;57.698;11.946;2023-07-13T12:39:27;1.92;;;0.50;;
13439;SDS011;6792;57.698;11.946;2023-07-13T12:42:10;0.65;;;0.33;;
13439;SDS011;6792;57.698;11.946;2023-07-13T12:44:48;0.30;;;0.30;;
13439;SDS011;6792;57.698;11.946;2023-07-13T12:47:19;0.93;;;0.37;;
13439;SDS011;6792;57.698;11.946;2023-07-13T12:49:49;1.25;;;0.42;;
13439;SDS011;6792;57.698;11.946;2023-07-13T12:52:21;0.55;;;0.30;;
13439;SDS011;6792;57.698;11.946;2023-07-13T12:54:55;1.75;;;0.47;;
13439;SDS011;6792;57.698;11.946;2023-07-13T12:57:26;5.08;;;1.10;;
13439;SDS011;6792;57.698;11.946;2023-07-13T12:59:56;1.10;;;0.50;;
13439;SDS011;6792;57.698;11.946;2023-07-13T13:02:28;1.02;;;0.40;;
13439;SDS011;6792;57.698;11.946;2023-07-13T13:04:59;0.53;;;0.40;;
13439;SDS011;6792;57.698;11.946;2023-07-13T13:07:29;0.93;;;0.42;;
13439;SDS011;6792;57.698;11.946;2023-07-13T13:09:59;2.45;;;0.60;;
13439;SDS011;6792;57.698;11.946;2023-07-13T13:12:28;2.27;;;0.62;;
13439;SDS011;6792;57.698;11.946;2023-07-13T13:14:58;2.05;;;0.70;;
13439;SDS011;6792;57.698;11.946;2023-07-13T13:17:29;4.70;;;0.80;;
13439;SDS011;6792;57.698;11.946;2023-07-13T13:19:58;5.72;;;0.82;;
13439;SDS011;6792;57.698;11.946;2023-07-13T13:22:28;2.50;;;0.70;;
13439;SDS011;6792;57.698;11.946;2023-07-13T13:24:58;3.20;;;0.65;;
13439;SDS011;6792;57.698;11.946;2023-07-13T13:27:30;1.22;;;0.50;;
13439;SDS011;6792;57.698;11.946;2023-07-13T13:29:59;2.60;;;0.80;;
13439;SDS011;6792;57.698;11.946;2023-07-13T13:32:29;1.55;;;0.57;;
13439;SDS011;6792;57.698;11.946;2023-07-13T13:34:59;2.00;;;0.75;;
13439;SDS011;6792;57.698;11.946;2023-07-13T13:37:28;2.52;;;0.72;;
13439;SDS011;6792;57.698;11.946;2023-07-13T13:39:57;2.37;;;0.62;;
13439;SDS011;6792;57.698;11.946;2023-07-13T13:42:26;2.90;;;0.90;;
13439;SDS011;6792;57.698;11.946;2023-07-13T13:44:56;1.60;;;0.40;;
13439;SDS011;6792;57.698;11.946;2023-07-13T13:47:29;5.00;;;0.70;;
13439;SDS011;6792;57.698;11.946;2023-07-13T13:50:04;2.47;;;0.50;;
13439;SDS011;6792;57.698;11.946;2023-07-13T13:52:41;3.87;;;0.70;;
13439;SDS011;6792;57.698;11.946;2023-07-13T13:55:14;1.90;;;0.60;;
13439;SDS011;6792;57.698;11.946;2023-07-13T13:57:45;0.93;;;0.57;;
13439;SDS011;6792;57.698;11.946;2023-07-13T14:00:16;2.27;;;0.60;;
13439;SDS011;6792;57.698;11.946;2023-07-13T14:02:47;1.50;;;0.60;;
13439;SDS011;6792;57.698;11.946;2023-07-13T14:05:19;1.12;;;0.65;;
13439;SDS011;6792;57.698;11.946;2023-07-13T14:07:52;3.10;;;0.50;;
13439;SDS011;6792;57.698;11.946;2023-07-13T14:10:23;2.17;;;0.55;;
13439;SDS011;6792;57.698;11.946;2023-07-13T14:12:53;1.07;;;0.60;;
13439;SDS011;6792;57.698;11.946;2023-07-13T14:15:24;1.15;;;0.50;;
13439;SDS011;6792;57.698;11.946;2023-07-13T14:17:57;1.80;;;0.50;;
13439;SDS011;6792;57.698;11.946;2023-07-13T14:20:26;1.80;;;0.60;;
13439;SDS011;6792;57.698;11.946;2023-07-13T14:22:56;2.45;;;0.70;;
13439;SDS011;6792;57.698;11.946;2023-07-13T14:25:25;1.72;;;0.93;;
13439;SDS011;6792;57.698;11.946;2023-07-13T14:27:56;1.50;;;0.50;;
13439;SDS011;6792;57.698;11.946;2023-07-13T14:30:27;1.65;;;0.72;;
13439;SDS011;6792;57.698;11.946;2023-07-13T14:32:56;3.10;;;0.60;;
13439;SDS011;6792;57.698;11.946;2023-07-13T14:35:25;3.37;;;0.90;;
13439;SDS011;6792;57.698;11.946;2023-07-13T14:37:54;1.30;;;0.75;;
13439;SDS011;6792;57.698;11.946;2023-07-13T14:40:25;1.62;;;0.60;;
13439;SDS011;6792;57.698;11.946;2023-07-13T14:42:56;1.45;;;0.60;;
13439;SDS011;6792;57.698;11.946;2023-07-13T14:45:26;3.60;;;0.78;;
13439;SDS011;6792;57.698;11.946;2023-07-13T14:47:56;1.67;;;0.60;;
13439;SDS011;6792;57.698;11.946;2023-07-13T14:50:26;1.40;;;0.50;;
13439;SDS011;6792;57.698;11.946;2023-07-13T14:52:58;0.80;;;0.60;;
13439;SDS011;6792;57.698;11.946;2023-07-13T14:55:27;1.07;;;0.47;;
13439;SDS011;6792;57.698;11.946;2023-07-13T14:57:56;2.87;;;0.60;;
13439;SDS011;6792;57.698;11.946;2023-07-13T15:00:26;1.70;;;0.68;;
13439;SDS011;6792;57.698;11.946;2023-07-13T15:02:57;1.50;;;0.75;;
13439;SDS011;6792;57.698;11.946;2023-07-13T15:05:28;2.00;;;0.60;;
13439;SDS011;6792;57.698;11.946;2023-07-13T15:08:00;3.50;;;0.62;;
13439;SDS011;6792;57.698;11.946;2023-07-13T15:10:31;2.35;;;0.72;;
13439;SDS011;6792;57.698;11.946;2023-07-13T15:13:13;2.20;;;0.98;;
13439;SDS011;6792;57.698;11.946;2023-07-13T15:15:43;3.70;;;0.70;;
13439;SDS011;6792;57.698;11.946;2023-07-13T15:18:14;2.65;;;1.00;;
13439;SDS011;6792;57.698;11.946;2023-07-13T15:20:46;2.37;;;0.60;;
13439;SDS011;6792;57.698;11.946;2023-07-13T15:23:18;2.30;;;0.90;;
13439;SDS011;6792;57.698;11.946;2023-07-13T15:25:48;2.67;;;0.90;;
13439;SDS011;6792;57.698;11.946;2023-07-13T15:28:18;1.32;;;1.00;;
13439;SDS011;6792;57.698;11.946;2023-07-13T15:30:48;2.55;;;0.80;;
13439;SDS011;6792;57.698;11.946;2023-07-13T15:33:23;2.87;;;0.98;;
13439;SDS011;6792;57.698;11.946;2023-07-13T15:35:54;4.05;;;1.12;;
13439;SDS011;6792;57.698;11.946;2023-07-13T15:38:25;5.35;;;1.50;;
13439;SDS011;6792;57.698;11.946;2023-07-13T15:40:56;5.42;;;1.57;;
13439;SDS011;6792;57.698;11.946;2023-07-13T15:43:25;3.75;;;1.35;;